YVR weather

Vancouver International Airport
Vancouver, British Columbia, Canada

Public forecast

Using degrees Celsius for public forecast. Weather courtesy of forecast.io.

Current aviation weather report (METAR) for Vancouver International Airport

Retrieved 2020/08/05 19:00 UTC (22 minutes ago):

CYVR 051900Z 15013KT 20SM FEW036 FEW120 FEW260 22/13 A2992 RMK CU1AC1CI1 CU TR AC TR SLP132 DENSITY ALT 900FT

Aviation forecast (TAF) for Vancouver International Airport

Retrieved 2020/08/05 18:39 UTC (43 minutes ago):

TAF CYVR 051738Z 0518/0624 12010KT P6SM FEW050 FM060600 08005KT P6SM SCT050 BKN120 TEMPO 0606/0609 P6SM -SHRA BKN050 OVC080 FM060900 28012KT P6SM -RA SCT015 BKN030 OVC050 TEMPO 0609/0615 4SM SHRA BR SCT008 BKN015 OVC025 FM061500 28010KT 6SM -SHRA BR SCT008 BKN015 OVC025 FM062000 28015KT P6SM BKN030 RMK NXT FCST BY 052100Z